Time;durP1;ratioP1;P1;durP2;ratioP2;P2;SDS_P1;SDS_P2;PMS_P1;PMS_P2;Temp;Humidity;BMP_temperature;BMP_pressure;BME280_temperature;BME280_humidity;BME280_pressure;Samples;Min_cycle;Max_cycle;Signal;HPM_P1;HPM_P2
2023/05/17 00:00:23;;;;;;;5.93;1.80;;;;;;;;;;5040341;28;20664;-72
2023/05/17 00:02:49;;;;;;;3.60;1.40;;;;;;;;;;5040534;28;20261;-73
2023/05/17 00:05:15;;;;;;;3.93;1.60;;;;;;;;;;5036874;28;20179;-71
2023/05/17 00:07:41;;;;;;;4.07;1.43;;;;;;;;;;5034496;28;20189;-71
2023/05/17 00:10:08;;;;;;;2.53;1.40;;;;;;;;;;5035384;28;20568;-72
2023/05/17 00:12:34;;;;;;;5.67;1.90;;;;;;;;;;5039206;28;20182;-72
2023/05/17 00:15:00;;;;;;;2.67;1.40;;;;;;;;;;5033984;28;21782;-72
2023/05/17 00:17:26;;;;;;;3.60;1.70;;;;;;;;;;5015018;28;20194;-72
2023/05/17 00:19:52;;;;;;;4.13;1.33;;;;;;;;;;5037206;28;20217;-71
2023/05/17 00:22:19;;;;;;;1.83;1.30;;;;;;;;;;5038375;28;20582;-72
2023/05/17 00:24:45;;;;;;;3.33;1.60;;;;;;;;;;5017271;28;20567;-71
2023/05/17 00:27:11;;;;;;;3.50;1.50;;;;;;;;;;5042117;28;20293;-71
2023/05/17 00:29:37;;;;;;;2.90;1.50;;;;;;;;;;5032262;28;20193;-71
2023/05/17 00:32:04;;;;;;;4.37;1.40;;;;;;;;;;5041870;28;20502;-72
2023/05/17 00:34:30;;;;;;;3.13;1.70;;;;;;;;;;5034720;28;20221;-71
2023/05/17 00:36:56;;;;;;;2.87;1.50;;;;;;;;;;5037425;28;20206;-71
2023/05/17 00:39:22;;;;;;;3.10;1.33;;;;;;;;;;5023987;28;20178;-71
2023/05/17 00:41:48;;;;;;;3.60;1.70;;;;;;;;;;5018103;28;20177;-71
2023/05/17 00:44:14;;;;;;;2.43;1.50;;;;;;;;;;5036378;28;20257;-71
2023/05/17 00:46:41;;;;;;;2.90;1.50;;;;;;;;;;5035817;28;20695;-72
2023/05/17 00:49:08;;;;;;;5.13;1.70;;;;;;;;;;5035881;28;20182;-72
2023/05/17 00:51:34;;;;;;;4.10;1.70;;;;;;;;;;5027815;28;20265;-71
2023/05/17 00:54:01;;;;;;;5.67;1.67;;;;;;;;;;5034742;28;20178;-71
2023/05/17 00:56:27;;;;;;;3.37;1.63;;;;;;;;;;5044861;28;20344;-71
2023/05/17 00:58:54;;;;;;;6.30;2.00;;;;;;;;;;5013033;28;20270;-71
2023/05/17 01:01:20;;;;;;;3.13;1.40;;;;;;;;;;4999272;28;20630;-71
2023/05/17 01:03:46;;;;;;;2.80;1.80;;;;;;;;;;4999801;28;20591;-72
2023/05/17 01:06:13;;;;;;;4.20;1.90;;;;;;;;;;5029001;28;20205;-71
2023/05/17 01:08:39;;;;;;;4.77;1.83;;;;;;;;;;5023575;28;20182;-71
2023/05/17 01:11:11;;;;;;;3.37;1.40;;;;;;;;;;5034602;28;20190;-71
2023/05/17 01:13:59;;;;;;;3.17;1.50;;;;;;;;;;5034320;28;20588;-71
2023/05/17 01:16:58;;;;;;;4.67;1.70;;;;;;;;;;5033801;28;20218;-71
2023/05/17 01:19:40;;;;;;;2.43;1.40;;;;;;;;;;4974548;28;20194;-71
2023/05/17 01:22:12;;;;;;;7.23;1.93;;;;;;;;;;4997037;28;20671;-71
2023/05/17 01:24:52;;;;;;;4.20;1.67;;;;;;;;;;5034490;28;20182;-71
2023/05/17 01:27:19;;;;;;;3.43;1.70;;;;;;;;;;5020345;28;20732;-71
2023/05/17 01:29:45;;;;;;;2.53;1.50;;;;;;;;;;5032289;28;20717;-72
2023/05/17 01:32:13;;;;;;;3.73;1.80;;;;;;;;;;5034009;28;20680;-71
2023/05/17 01:34:40;;;;;;;4.50;1.80;;;;;;;;;;5022107;28;20187;-71
2023/05/17 01:37:07;;;;;;;4.10;2.07;;;;;;;;;;5049938;28;20213;-71
2023/05/17 01:39:33;;;;;;;4.60;1.90;;;;;;;;;;5026737;28;20194;-71
2023/05/17 01:42:02;;;;;;;4.00;2.00;;;;;;;;;;5043308;28;20178;-72
2023/05/17 01:44:31;;;;;;;4.77;1.90;;;;;;;;;;5034113;28;20182;-71
2023/05/17 01:47:01;;;;;;;3.80;2.10;;;;;;;;;;5021045;28;20210;-71
2023/05/17 01:49:32;;;;;;;3.03;1.80;;;;;;;;;;5040728;28;20266;-71
2023/05/17 01:52:08;;;;;;;2.73;1.60;;;;;;;;;;5038917;28;20178;-71
2023/05/17 01:54:51;;;;;;;5.17;1.70;;;;;;;;;;5036945;28;20174;-71
2023/05/17 01:57:19;;;;;;;3.90;1.67;;;;;;;;;;5033709;28;20230;-71
2023/05/17 01:59:46;;;;;;;3.93;1.70;;;;;;;;;;5022508;28;20175;-71
2023/05/17 02:02:13;;;;;;;2.63;1.80;;;;;;;;;;5043990;28;20228;-71
2023/05/17 02:04:39;;;;;;;3.57;1.87;;;;;;;;;;5021033;28;20195;-71
2023/05/17 02:07:05;;;;;;;4.20;1.83;;;;;;;;;;5032376;28;20681;-71
2023/05/17 02:09:31;;;;;;;2.90;1.63;;;;;;;;;;5038233;28;20687;-71
2023/05/17 02:11:58;;;;;;;3.90;1.60;;;;;;;;;;5019345;28;20183;-71
2023/05/17 02:14:24;;;;;;;3.30;1.60;;;;;;;;;;5042884;28;20262;-71
2023/05/17 02:16:50;;;;;;;4.57;1.87;;;;;;;;;;5016007;28;20252;-71
2023/05/17 02:19:17;;;;;;;4.27;2.10;;;;;;;;;;5033807;28;20175;-71
2023/05/17 02:21:43;;;;;;;3.93;1.87;;;;;;;;;;5033543;28;20182;-71
2023/05/17 02:24:09;;;;;;;4.50;1.67;;;;;;;;;;5034601;28;20690;-71
2023/05/17 02:26:35;;;;;;;3.27;1.87;;;;;;;;;;5040887;28;20308;-72
2023/05/17 02:29:02;;;;;;;5.27;2.03;;;;;;;;;;5033935;28;20267;-71
2023/05/17 02:31:30;;;;;;;4.60;1.90;;;;;;;;;;5052789;28;20219;-71
2023/05/17 02:33:56;;;;;;;2.70;1.70;;;;;;;;;;5045320;28;20286;-72
2023/05/17 02:36:22;;;;;;;5.33;2.00;;;;;;;;;;5033409;28;20214;-71
2023/05/17 02:38:48;;;;;;;3.13;1.73;;;;;;;;;;5011992;28;20549;-71
2023/05/17 02:41:14;;;;;;;5.07;1.80;;;;;;;;;;5017889;28;20191;-71
2023/05/17 02:43:41;;;;;;;4.57;1.80;;;;;;;;;;5032626;28;20178;-71
2023/05/17 02:46:07;;;;;;;3.20;1.70;;;;;;;;;;5016361;28;20291;-71
2023/05/17 02:48:33;;;;;;;3.83;1.70;;;;;;;;;;5040777;28;20178;-71
2023/05/17 02:50:59;;;;;;;3.47;1.80;;;;;;;;;;5034520;28;20174;-71
2023/05/17 02:53:25;;;;;;;2.20;1.63;;;;;;;;;;5033816;28;20181;-71
2023/05/17 02:55:51;;;;;;;4.60;2.80;;;;;;;;;;5031993;28;20653;-72
2023/05/17 02:58:18;;;;;;;3.80;2.33;;;;;;;;;;5030091;28;20186;-71
2023/05/17 03:00:45;;;;;;;6.20;2.30;;;;;;;;;;5015812;28;20237;-71
2023/05/17 03:03:11;;;;;;;4.17;2.20;;;;;;;;;;5034519;28;20185;-71
2023/05/17 03:05:37;;;;;;;2.97;2.00;;;;;;;;;;5050870;28;20752;-71
2023/05/17 03:08:03;;;;;;;3.57;1.80;;;;;;;;;;4996612;28;20194;-71
2023/05/17 03:10:30;;;;;;;3.60;2.07;;;;;;;;;;5027551;28;20186;-71
2023/05/17 03:12:56;;;;;;;4.97;1.93;;;;;;;;;;4996542;28;20194;-71
2023/05/17 03:15:28;;;;;;;6.00;2.20;;;;;;;;;;5012663;28;20206;-71
2023/05/17 03:17:55;;;;;;;3.80;1.90;;;;;;;;;;5016190;28;20248;-71
2023/05/17 03:20:23;;;;;;;3.90;1.93;;;;;;;;;;5021053;28;20183;-71
2023/05/17 03:22:49;;;;;;;3.43;1.80;;;;;;;;;;5014196;28;20183;-71
2023/05/17 03:25:15;;;;;;;3.60;2.20;;;;;;;;;;5018464;28;20178;-71
2023/05/17 03:27:42;;;;;;;4.40;1.80;;;;;;;;;;5027565;28;20327;-71
2023/05/17 03:30:08;;;;;;;3.50;2.10;;;;;;;;;;5009969;28;20193;-71
2023/05/17 03:32:37;;;;;;;4.53;2.00;;;;;;;;;;5017145;28;20655;-72
2023/05/17 03:35:03;;;;;;;2.30;1.73;;;;;;;;;;5035113;28;20189;-71
2023/05/17 03:37:30;;;;;;;4.13;2.20;;;;;;;;;;5005172;28;20229;-71
2023/05/17 03:39:56;;;;;;;4.60;2.03;;;;;;;;;;5023574;28;20193;-71
2023/05/17 03:42:22;;;;;;;4.73;2.37;;;;;;;;;;5025575;28;20179;-71
2023/05/17 03:44:48;;;;;;;5.63;2.40;;;;;;;;;;5020662;28;20190;-71
2023/05/17 03:47:15;;;;;;;6.00;2.43;;;;;;;;;;5004041;28;20202;-71
2023/05/17 03:49:41;;;;;;;4.93;2.70;;;;;;;;;;5019179;28;20186;-72
2023/05/17 03:52:08;;;;;;;4.80;2.43;;;;;;;;;;4999265;28;21127;-71
2023/05/17 03:54:34;;;;;;;3.73;2.23;;;;;;;;;;5025971;28;20189;-71
2023/05/17 03:57:00;;;;;;;3.93;2.40;;;;;;;;;;5020366;28;20267;-71
2023/05/17 03:59:26;;;;;;;3.93;2.33;;;;;;;;;;5018086;28;20269;-72
2023/05/17 04:01:53;;;;;;;4.70;2.40;;;;;;;;;;5017847;28;20665;-71
2023/05/17 04:04:19;;;;;;;4.90;2.67;;;;;;;;;;5036147;28;20190;-71
2023/05/17 04:06:45;;;;;;;3.73;2.80;;;;;;;;;;5015714;28;20202;-71
2023/05/17 04:09:14;;;;;;;5.77;2.90;;;;;;;;;;5019258;28;20275;-71
2023/05/17 04:11:41;;;;;;;7.67;3.20;;;;;;;;;;5002917;28;20178;-71
2023/05/17 04:14:07;;;;;;;4.37;2.47;;;;;;;;;;5016502;28;20186;-71
2023/05/17 04:16:34;;;;;;;4.63;2.60;;;;;;;;;;5007907;28;20292;-71
2023/05/17 04:19:00;;;;;;;7.97;2.97;;;;;;;;;;5019230;28;20199;-71
2023/05/17 04:21:28;;;;;;;5.83;2.70;;;;;;;;;;5016044;28;20178;-71
2023/05/17 04:23:55;;;;;;;4.13;2.50;;;;;;;;;;5017235;28;20186;-72
2023/05/17 04:26:21;;;;;;;6.47;2.83;;;;;;;;;;5036186;28;20217;-71
2023/05/17 04:28:48;;;;;;;5.97;3.20;;;;;;;;;;5025258;28;20186;-71
2023/05/17 04:31:16;;;;;;;5.57;2.87;;;;;;;;;;5019089;28;20182;-71
2023/05/17 04:33:42;;;;;;;3.87;2.97;;;;;;;;;;5020630;28;20194;-71
2023/05/17 04:36:08;;;;;;;5.73;3.27;;;;;;;;;;5040605;28;20205;-71
2023/05/17 04:38:35;;;;;;;5.23;2.73;;;;;;;;;;5016385;28;20170;-71
2023/05/17 04:41:03;;;;;;;5.40;3.27;;;;;;;;;;5039620;28;20675;-71
2023/05/17 04:43:31;;;;;;;6.23;3.03;;;;;;;;;;5015670;28;20178;-71
2023/05/17 04:45:58;;;;;;;6.37;3.10;;;;;;;;;;5013384;28;20199;-71
2023/05/17 04:48:25;;;;;;;7.20;2.87;;;;;;;;;;5013355;28;20214;-71
2023/05/17 04:50:52;;;;;;;4.57;3.10;;;;;;;;;;4994898;28;20269;-71
2023/05/17 04:53:18;;;;;;;4.43;3.00;;;;;;;;;;5013521;28;20190;-71
2023/05/17 04:55:46;;;;;;;4.17;2.30;;;;;;;;;;5002834;28;20221;-71
2023/05/17 04:58:14;;;;;;;5.70;3.00;;;;;;;;;;5029738;28;20182;-71
2023/05/17 05:00:42;;;;;;;5.70;3.13;;;;;;;;;;5022225;28;20213;-71
2023/05/17 05:03:09;;;;;;;4.23;3.00;;;;;;;;;;5017222;28;20174;-71
2023/05/17 05:05:35;;;;;;;5.73;2.70;;;;;;;;;;5023850;28;20197;-72
2023/05/17 05:08:02;;;;;;;5.00;3.20;;;;;;;;;;5022749;28;20238;-72
2023/05/17 05:10:28;;;;;;;7.17;3.00;;;;;;;;;;5016331;28;20273;-71
2023/05/17 05:12:56;;;;;;;6.93;2.80;;;;;;;;;;5018895;28;20276;-71
2023/05/17 05:15:23;;;;;;;5.37;2.90;;;;;;;;;;5019531;28;20220;-71
2023/05/17 05:17:54;;;;;;;4.23;2.93;;;;;;;;;;5025414;28;20189;-71
2023/05/17 05:20:20;;;;;;;6.83;3.00;;;;;;;;;;5013886;28;20175;-71
2023/05/17 05:22:46;;;;;;;5.60;3.07;;;;;;;;;;5017386;28;20484;-71
2023/05/17 05:25:13;;;;;;;6.03;2.80;;;;;;;;;;5023307;28;20192;-72
2023/05/17 05:27:40;;;;;;;4.07;3.10;;;;;;;;;;5024895;28;20504;-72
2023/05/17 05:30:07;;;;;;;6.97;2.90;;;;;;;;;;5028933;28;20198;-71
2023/05/17 05:32:33;;;;;;;4.80;3.30;;;;;;;;;;5017616;28;20861;-71
2023/05/17 05:34:59;;;;;;;6.10;3.10;;;;;;;;;;5036843;28;20182;-71
2023/05/17 05:37:26;;;;;;;6.07;3.00;;;;;;;;;;5002221;28;20639;-71
2023/05/17 05:39:53;;;;;;;6.17;2.90;;;;;;;;;;5019122;28;20221;-71
2023/05/17 05:42:19;;;;;;;6.23;3.23;;;;;;;;;;5012978;28;20257;-71
2023/05/17 05:44:45;;;;;;;6.27;3.27;;;;;;;;;;5010868;28;20182;-73
2023/05/17 05:47:11;;;;;;;5.00;3.40;;;;;;;;;;5012884;28;20198;-74
2023/05/17 05:49:37;;;;;;;4.43;3.00;;;;;;;;;;5015069;28;20294;-74
2023/05/17 05:52:04;;;;;;;6.50;3.70;;;;;;;;;;5006155;28;20191;-74
2023/05/17 05:54:30;;;;;;;6.10;3.00;;;;;;;;;;4980573;28;20265;-72
2023/05/17 05:56:59;;;;;;;4.57;3.50;;;;;;;;;;4997003;28;20798;-75
2023/05/17 05:59:25;;;;;;;7.17;3.87;;;;;;;;;;4997197;28;20190;-73
2023/05/17 06:01:51;;;;;;;7.63;3.80;;;;;;;;;;5011565;28;20531;-74
2023/05/17 06:04:17;;;;;;;9.17;4.00;;;;;;;;;;5028798;28;20202;-71
2023/05/17 06:06:44;;;;;;;8.53;4.13;;;;;;;;;;5033338;28;20202;-71
2023/05/17 06:09:11;;;;;;;8.70;4.17;;;;;;;;;;5033820;28;20189;-71
2023/05/17 06:11:37;;;;;;;5.73;3.60;;;;;;;;;;5033937;28;20179;-74
2023/05/17 06:14:04;;;;;;;6.23;3.80;;;;;;;;;;5033597;28;20892;-70
2023/05/17 06:16:30;;;;;;;5.93;3.50;;;;;;;;;;5033216;28;20260;-70
2023/05/17 06:18:56;;;;;;;6.33;3.60;;;;;;;;;;5032650;28;20169;-71
2023/05/17 06:21:22;;;;;;;7.17;4.00;;;;;;;;;;5033010;28;20179;-71
2023/05/17 06:23:48;;;;;;;6.70;3.70;;;;;;;;;;5033030;28;20175;-71
2023/05/17 06:26:14;;;;;;;8.37;4.03;;;;;;;;;;5033035;28;20214;-72
2023/05/17 06:28:40;;;;;;;6.53;3.27;;;;;;;;;;5033572;28;20174;-71
2023/05/17 06:31:07;;;;;;;6.33;3.40;;;;;;;;;;5033367;28;20282;-71
2023/05/17 06:33:33;;;;;;;5.63;3.20;;;;;;;;;;5032571;28;20562;-71
2023/05/17 06:35:59;;;;;;;8.57;3.67;;;;;;;;;;5028874;28;20210;-72
2023/05/17 06:38:25;;;;;;;7.07;3.93;;;;;;;;;;5007287;28;20183;-71
2023/05/17 06:40:56;;;;;;;7.27;3.90;;;;;;;;;;5015848;28;20269;-71
2023/05/17 06:43:22;;;;;;;7.60;4.00;;;;;;;;;;5013392;28;20175;-71
2023/05/17 06:45:48;;;;;;;7.63;3.97;;;;;;;;;;5012259;28;20210;-71
2023/05/17 06:48:15;;;;;;;6.50;3.70;;;;;;;;;;5013799;28;20172;-71
2023/05/17 06:50:41;;;;;;;4.97;3.47;;;;;;;;;;5012362;28;20187;-70
2023/05/17 06:53:07;;;;;;;6.33;3.80;;;;;;;;;;5030797;28;20183;-71
2023/05/17 06:55:33;;;;;;;5.90;3.83;;;;;;;;;;5033065;28;20333;-72
2023/05/17 06:57:59;;;;;;;8.03;3.60;;;;;;;;;;5032954;28;20171;-71
2023/05/17 07:00:26;;;;;;;5.67;3.50;;;;;;;;;;5014152;28;20178;-71
2023/05/17 07:02:52;;;;;;;8.37;3.80;;;;;;;;;;5008603;28;20819;-71
2023/05/17 07:05:18;;;;;;;8.03;3.80;;;;;;;;;;5032093;28;20175;-70
2023/05/17 07:07:44;;;;;;;5.77;3.87;;;;;;;;;;5032461;28;20210;-70
2023/05/17 07:10:10;;;;;;;9.93;3.97;;;;;;;;;;5032553;28;20566;-71
2023/05/17 07:12:37;;;;;;;6.10;3.50;;;;;;;;;;5032391;28;20186;-71
2023/05/17 07:15:04;;;;;;;8.90;4.00;;;;;;;;;;5032765;28;20174;-70
2023/05/17 07:17:30;;;;;;;6.60;3.87;;;;;;;;;;5032767;28;20210;-71
2023/05/17 07:19:56;;;;;;;6.73;3.60;;;;;;;;;;5024301;28;20644;-70
2023/05/17 07:22:22;;;;;;;7.10;3.60;;;;;;;;;;5032135;28;20174;-70
2023/05/17 07:24:49;;;;;;;8.43;3.37;;;;;;;;;;4977185;28;20270;-70
2023/05/17 07:27:17;;;;;;;8.13;3.40;;;;;;;;;;5032291;28;20297;-70
2023/05/17 07:29:43;;;;;;;8.47;3.40;;;;;;;;;;5032511;28;20182;-71
2023/05/17 07:32:09;;;;;;;7.20;3.90;;;;;;;;;;5032090;28;20672;-70
2023/05/17 07:34:35;;;;;;;5.90;3.37;;;;;;;;;;5029498;28;20190;-71
2023/05/17 07:37:02;;;;;;;6.90;3.17;;;;;;;;;;5032057;28;20214;-70
2023/05/17 07:39:28;;;;;;;6.67;3.83;;;;;;;;;;5032337;28;20703;-71
2023/05/17 07:41:54;;;;;;;8.10;3.77;;;;;;;;;;5028566;28;20268;-71
2023/05/17 07:44:20;;;;;;;8.80;3.40;;;;;;;;;;5031813;28;20186;-70
2023/05/17 07:46:47;;;;;;;8.17;3.60;;;;;;;;;;5022913;28;20206;-70
2023/05/17 07:49:14;;;;;;;6.93;3.50;;;;;;;;;;5032372;28;20661;-71
2023/05/17 07:51:40;;;;;;;10.50;4.63;;;;;;;;;;5014470;28;20177;-70
2023/05/17 07:54:06;;;;;;;6.90;3.67;;;;;;;;;;5031959;28;20660;-71
2023/05/17 07:56:32;;;;;;;6.20;3.70;;;;;;;;;;5031714;28;20220;-70
2023/05/17 07:58:59;;;;;;;8.27;4.00;;;;;;;;;;5030952;28;20186;-71
2023/05/17 08:01:26;;;;;;;10.00;3.87;;;;;;;;;;5025684;28;20193;-71
2023/05/17 08:03:52;;;;;;;10.17;4.07;;;;;;;;;;5012649;28;20186;-71
2023/05/17 08:06:18;;;;;;;7.63;3.40;;;;;;;;;;5031262;28;20202;-71
2023/05/17 08:08:44;;;;;;;7.43;3.77;;;;;;;;;;5031143;28;20186;-71
2023/05/17 08:11:11;;;;;;;8.10;4.17;;;;;;;;;;5030352;28;20645;-71
2023/05/17 08:13:37;;;;;;;9.13;4.47;;;;;;;;;;5031237;28;20190;-71
2023/05/17 08:16:06;;;;;;;10.07;4.10;;;;;;;;;;5030925;28;20287;-71
2023/05/17 08:18:33;;;;;;;8.43;4.43;;;;;;;;;;5013850;28;20182;-71
2023/05/17 08:20:59;;;;;;;7.20;4.40;;;;;;;;;;5014097;28;20183;-71
2023/05/17 08:23:25;;;;;;;9.83;4.37;;;;;;;;;;5030962;28;20249;-71
2023/05/17 08:25:51;;;;;;;6.93;3.80;;;;;;;;;;5013909;28;20345;-71
2023/05/17 08:28:18;;;;;;;8.37;3.60;;;;;;;;;;5012623;28;20558;-71
2023/05/17 08:30:44;;;;;;;10.10;3.83;;;;;;;;;;5026346;28;20182;-71
2023/05/17 08:33:10;;;;;;;7.50;3.63;;;;;;;;;;5031080;28;20174;-71
2023/05/17 08:35:37;;;;;;;5.80;3.17;;;;;;;;;;5031069;28;20190;-71
2023/05/17 08:38:03;;;;;;;6.63;3.53;;;;;;;;;;5013420;28;20190;-71
2023/05/17 08:40:29;;;;;;;5.50;3.40;;;;;;;;;;5023271;28;20186;-71
2023/05/17 08:42:55;;;;;;;6.30;3.27;;;;;;;;;;5020439;28;20194;-71
2023/05/17 08:45:22;;;;;;;6.00;3.40;;;;;;;;;;5018547;28;20179;-71
2023/05/17 08:47:49;;;;;;;5.63;3.20;;;;;;;;;;5026438;28;20711;-71
2023/05/17 08:50:16;;;;;;;7.87;3.10;;;;;;;;;;5028521;28;20665;-71
2023/05/17 08:52:45;;;;;;;6.53;3.20;;;;;;;;;;5023246;28;20748;-71
2023/05/17 08:55:11;;;;;;;6.33;3.33;;;;;;;;;;5026012;28;20174;-71
2023/05/17 08:57:39;;;;;;;7.03;3.60;;;;;;;;;;5024025;28;20617;-71
2023/05/17 09:00:08;;;;;;;6.73;3.13;;;;;;;;;;5025928;28;20414;-71
2023/05/17 09:02:34;;;;;;;4.80;3.23;;;;;;;;;;5017538;28;20202;-72
2023/05/17 09:05:00;;;;;;;6.17;3.10;;;;;;;;;;5020839;28;20185;-71
2023/05/17 09:07:26;;;;;;;5.33;3.00;;;;;;;;;;5025172;28;20207;-72
2023/05/17 09:09:53;;;;;;;4.93;3.00;;;;;;;;;;5024153;28;20190;-70
2023/05/17 09:12:20;;;;;;;4.80;2.67;;;;;;;;;;5023256;28;20182;-72
2023/05/17 09:14:46;;;;;;;7.43;3.17;;;;;;;;;;5028636;28;20256;-72
2023/05/17 09:17:19;;;;;;;4.67;2.50;;;;;;;;;;5029640;28;20280;-72
2023/05/17 09:19:46;;;;;;;5.37;2.70;;;;;;;;;;5012734;28;20186;-71
2023/05/17 09:22:13;;;;;;;5.20;3.03;;;;;;;;;;5029577;28;20655;-71
2023/05/17 09:24:40;;;;;;;4.00;2.53;;;;;;;;;;5027614;28;20623;-72
2023/05/17 09:27:07;;;;;;;5.33;3.07;;;;;;;;;;5041990;28;20254;-72
2023/05/17 09:29:33;;;;;;;6.03;3.10;;;;;;;;;;5037955;28;20179;-72
2023/05/17 09:32:11;;;;;;;6.50;2.67;;;;;;;;;;5035760;28;20187;-72
2023/05/17 09:34:41;;;;;;;5.93;2.90;;;;;;;;;;4996816;28;20186;-71
2023/05/17 09:37:17;;;;;;;4.03;2.43;;;;;;;;;;5020904;28;20237;-71
2023/05/17 09:39:44;;;;;;;4.00;2.40;;;;;;;;;;5031498;28;20218;-71
2023/05/17 09:42:10;;;;;;;4.80;2.67;;;;;;;;;;5007808;28;20555;-72
2023/05/17 09:44:52;;;;;;;4.33;2.70;;;;;;;;;;5028459;28;20281;-73
2023/05/17 09:47:22;;;;;;;5.03;2.60;;;;;;;;;;5027509;28;20245;-73
2023/05/17 09:49:48;;;;;;;5.10;2.73;;;;;;;;;;5007480;28;20217;-74
2023/05/17 09:52:18;;;;;;;4.80;2.87;;;;;;;;;;5013936;28;20190;-74
2023/05/17 09:54:51;;;;;;;4.10;2.47;;;;;;;;;;5026687;28;20232;-74
2023/05/17 09:57:18;;;;;;;4.43;3.00;;;;;;;;;;5028641;28;20218;-73
2023/05/17 09:59:45;;;;;;;5.03;2.70;;;;;;;;;;5009581;28;20182;-73
2023/05/17 10:02:17;;;;;;;5.27;3.03;;;;;;;;;;5031814;28;20205;-73
2023/05/17 10:04:44;;;;;;;6.20;2.90;;;;;;;;;;5024694;28;20297;-71
2023/05/17 10:07:11;;;;;;;5.80;2.80;;;;;;;;;;5012051;28;20265;-72
2023/05/17 10:09:37;;;;;;;6.73;3.40;;;;;;;;;;5029483;28;20188;-72
2023/05/17 10:12:06;;;;;;;6.80;3.43;;;;;;;;;;5030071;28;20228;-72
2023/05/17 10:14:34;;;;;;;7.43;3.50;;;;;;;;;;5028400;28;20196;-72
2023/05/17 10:17:01;;;;;;;6.33;2.43;;;;;;;;;;5032137;28;20697;-72
2023/05/17 10:19:28;;;;;;;5.33;2.80;;;;;;;;;;5028853;28;20183;-73
2023/05/17 10:21:56;;;;;;;6.30;3.30;;;;;;;;;;5031599;28;20178;-71
2023/05/17 10:24:22;;;;;;;6.53;3.07;;;;;;;;;;5028103;28;20232;-76
2023/05/17 10:26:51;;;;;;;6.80;2.90;;;;;;;;;;5021117;28;20644;-74
2023/05/17 10:29:19;;;;;;;7.20;3.13;;;;;;;;;;5028790;28;20187;-72
2023/05/17 10:31:46;;;;;;;4.60;3.00;;;;;;;;;;5029396;28;20192;-72
2023/05/17 10:34:15;;;;;;;5.03;3.00;;;;;;;;;;5026655;28;20182;-73
2023/05/17 10:36:43;;;;;;;6.50;3.27;;;;;;;;;;5025770;28;20269;-71
2023/05/17 10:39:09;;;;;;;5.97;2.90;;;;;;;;;;5031724;28;20201;-72
2023/05/17 10:41:36;;;;;;;5.60;3.00;;;;;;;;;;4991552;28;20248;-71
2023/05/17 10:44:03;;;;;;;5.67;2.90;;;;;;;;;;5026154;28;20284;-72
2023/05/17 10:46:30;;;;;;;9.03;3.17;;;;;;;;;;5028585;28;20206;-73
2023/05/17 10:48:57;;;;;;;7.13;2.90;;;;;;;;;;5031955;28;20174;-72
2023/05/17 10:51:31;;;;;;;5.87;3.00;;;;;;;;;;5031203;28;20187;-72
2023/05/17 10:54:03;;;;;;;5.80;2.90;;;;;;;;;;5029445;28;20186;-72
2023/05/17 10:56:32;;;;;;;6.37;2.97;;;;;;;;;;5029364;28;21581;-71
2023/05/17 10:59:18;;;;;;;6.13;3.40;;;;;;;;;;5031317;28;20175;-72
2023/05/17 11:01:56;;;;;;;5.87;2.67;;;;;;;;;;5029308;28;20197;-72
2023/05/17 11:04:33;;;;;;;4.37;2.60;;;;;;;;;;5030656;28;20190;-72
2023/05/17 11:07:18;;;;;;;6.03;2.80;;;;;;;;;;5033418;28;20197;-71
2023/05/17 11:09:45;;;;;;;6.77;2.93;;;;;;;;;;5031076;28;20183;-71
2023/05/17 11:12:12;;;;;;;5.40;2.90;;;;;;;;;;5013005;28;20186;-72
2023/05/17 11:14:44;;;;;;;5.40;2.67;;;;;;;;;;5032439;28;20186;-71
2023/05/17 11:17:13;;;;;;;5.90;2.77;;;;;;;;;;5027810;28;20655;-71
2023/05/17 11:19:52;;;;;;;4.57;2.53;;;;;;;;;;5031169;28;20187;-73
2023/05/17 11:22:18;;;;;;;8.27;2.80;;;;;;;;;;5030164;28;20210;-72
2023/05/17 11:24:44;;;;;;;6.30;2.97;;;;;;;;;;5029386;28;20232;-71
2023/05/17 11:27:14;;;;;;;5.40;3.00;;;;;;;;;;5031509;28;20292;-71
2023/05/17 11:29:41;;;;;;;6.10;3.17;;;;;;;;;;5017149;28;20237;-71
2023/05/17 11:32:09;;;;;;;6.50;2.90;;;;;;;;;;5030092;28;20681;-72
2023/05/17 11:34:35;;;;;;;6.17;2.83;;;;;;;;;;5016592;28;20252;-72
2023/05/17 11:37:03;;;;;;;6.93;3.20;;;;;;;;;;5017360;28;20304;-72
2023/05/17 11:39:30;;;;;;;5.90;2.83;;;;;;;;;;5031671;28;20190;-72
2023/05/17 11:41:56;;;;;;;4.33;3.00;;;;;;;;;;5027134;28;20178;-72
2023/05/17 11:44:29;;;;;;;3.93;2.70;;;;;;;;;;5029137;28;20195;-72
2023/05/17 11:47:02;;;;;;;5.67;2.83;;;;;;;;;;5031499;28;20224;-72
2023/05/17 11:49:30;;;;;;;6.13;3.20;;;;;;;;;;5029235;28;20213;-72
2023/05/17 11:51:56;;;;;;;4.23;2.50;;;;;;;;;;5026424;28;20189;-72
2023/05/17 11:54:23;;;;;;;6.50;2.93;;;;;;;;;;5032374;28;20225;-72
2023/05/17 11:56:49;;;;;;;7.33;3.23;;;;;;;;;;5028557;28;20226;-72
2023/05/17 11:59:19;;;;;;;6.50;3.30;;;;;;;;;;5029337;28;20278;-72
2023/05/17 12:01:46;;;;;;;5.33;2.83;;;;;;;;;;5028112;28;20179;-72
2023/05/17 12:04:12;;;;;;;4.93;3.00;;;;;;;;;;5027132;28;20654;-72
2023/05/17 12:06:39;;;;;;;5.77;2.80;;;;;;;;;;5021462;28;20210;-72
2023/05/17 12:09:09;;;;;;;5.17;2.63;;;;;;;;;;5014126;28;20182;-72
2023/05/17 12:11:38;;;;;;;7.87;3.07;;;;;;;;;;5012238;28;20650;-72
2023/05/17 12:14:04;;;;;;;7.47;3.13;;;;;;;;;;5027727;28;20197;-72
2023/05/17 12:16:32;;;;;;;5.57;2.70;;;;;;;;;;5010855;28;20979;-72
2023/05/17 12:18:58;;;;;;;6.13;3.13;;;;;;;;;;5028146;28;20189;-72
2023/05/17 12:21:24;;;;;;;5.73;2.90;;;;;;;;;;5029328;28;20186;-72
2023/05/17 12:23:51;;;;;;;4.57;2.83;;;;;;;;;;5024651;28;20198;-72
2023/05/17 12:26:26;;;;;;;5.70;3.03;;;;;;;;;;5028689;28;20215;-74
2023/05/17 12:28:57;;;;;;;6.03;2.63;;;;;;;;;;5029938;28;20239;-72
2023/05/17 12:31:29;;;;;;;8.43;3.10;;;;;;;;;;5028454;28;20241;-72
2023/05/17 12:33:57;;;;;;;7.07;2.80;;;;;;;;;;5027074;28;20186;-73
2023/05/17 12:36:24;;;;;;;5.93;2.90;;;;;;;;;;5011684;28;20794;-72
2023/05/17 12:38:51;;;;;;;5.27;3.00;;;;;;;;;;5027964;28;20183;-72
2023/05/17 12:41:17;;;;;;;4.63;2.73;;;;;;;;;;5026839;28;20197;-72
2023/05/17 12:43:44;;;;;;;4.67;2.97;;;;;;;;;;5011764;28;20230;-73
2023/05/17 12:46:14;;;;;;;5.10;2.77;;;;;;;;;;5029095;28;20285;-73
2023/05/17 12:48:42;;;;;;;5.07;2.83;;;;;;;;;;5029762;28;20237;-73
2023/05/17 12:51:09;;;;;;;5.83;3.00;;;;;;;;;;5030140;28;20229;-72
2023/05/17 12:53:36;;;;;;;5.13;2.80;;;;;;;;;;5026954;28;20269;-72
2023/05/17 12:56:02;;;;;;;5.00;2.83;;;;;;;;;;5024047;28;20312;-73
2023/05/17 12:58:28;;;;;;;6.33;3.20;;;;;;;;;;5029431;28;20244;-72
2023/05/17 13:01:01;;;;;;;6.27;3.13;;;;;;;;;;5008763;28;20179;-72
2023/05/17 13:03:28;;;;;;;7.07;3.73;;;;;;;;;;5030896;28;20191;-72
2023/05/17 13:06:08;;;;;;;6.90;3.07;;;;;;;;;;5033479;28;20621;-72
2023/05/17 13:08:35;;;;;;;5.87;3.17;;;;;;;;;;5026939;28;20206;-73
2023/05/17 13:11:12;;;;;;;5.77;2.70;;;;;;;;;;5030638;28;20175;-72
2023/05/17 13:13:38;;;;;;;4.13;2.60;;;;;;;;;;5030990;28;20191;-73
2023/05/17 13:16:04;;;;;;;5.83;2.90;;;;;;;;;;5032704;28;20683;-73
2023/05/17 13:18:34;;;;;;;6.30;3.07;;;;;;;;;;5025931;28;20202;-73
2023/05/17 13:21:01;;;;;;;5.97;2.77;;;;;;;;;;5034254;28;20281;-73
2023/05/17 13:23:27;;;;;;;6.40;2.97;;;;;;;;;;5028214;28;20265;-73
2023/05/17 13:25:53;;;;;;;7.43;2.90;;;;;;;;;;5025732;28;20246;-73
2023/05/17 13:28:20;;;;;;;5.97;2.70;;;;;;;;;;5014513;28;20179;-73
2023/05/17 13:30:50;;;;;;;6.67;3.30;;;;;;;;;;5028506;28;20186;-73
2023/05/17 13:33:17;;;;;;;6.13;3.00;;;;;;;;;;5028160;28;20186;-73
2023/05/17 13:35:43;;;;;;;3.33;2.50;;;;;;;;;;5032223;28;20198;-73
2023/05/17 13:38:09;;;;;;;4.33;2.73;;;;;;;;;;5030931;28;20614;-73
2023/05/17 13:40:35;;;;;;;15.23;3.10;;;;;;;;;;5031850;28;20214;-73
2023/05/17 13:43:02;;;;;;;6.43;3.10;;;;;;;;;;5026914;28;20234;-73
2023/05/17 13:45:28;;;;;;;4.70;2.70;;;;;;;;;;5029284;28;20616;-73
2023/05/17 13:47:54;;;;;;;3.80;2.70;;;;;;;;;;5014832;28;20183;-73
2023/05/17 13:50:20;;;;;;;5.17;2.90;;;;;;;;;;5031325;28;20197;-73
2023/05/17 13:52:46;;;;;;;4.63;2.93;;;;;;;;;;5029942;28;20636;-73
2023/05/17 13:55:12;;;;;;;4.87;2.60;;;;;;;;;;5015975;28;20733;-73
2023/05/17 13:57:38;;;;;;;4.17;2.67;;;;;;;;;;5015672;28;20267;-73
2023/05/17 14:00:05;;;;;;;4.53;3.07;;;;;;;;;;5029934;28;20207;-73
2023/05/17 14:02:32;;;;;;;4.40;2.83;;;;;;;;;;5030049;28;20179;-73
2023/05/17 14:04:58;;;;;;;5.97;3.00;;;;;;;;;;5028547;28;20183;-73
2023/05/17 14:07:24;;;;;;;4.83;2.63;;;;;;;;;;5031321;28;20305;-73
2023/05/17 14:09:50;;;;;;;5.73;2.70;;;;;;;;;;5032368;28;20240;-73
2023/05/17 14:12:16;;;;;;;5.43;3.10;;;;;;;;;;5029876;28;20195;-73
2023/05/17 14:14:43;;;;;;;6.83;3.00;;;;;;;;;;5031874;28;20216;-73
2023/05/17 14:17:09;;;;;;;6.50;3.03;;;;;;;;;;5029938;28;20223;-73
2023/05/17 14:19:35;;;;;;;5.27;3.00;;;;;;;;;;5032491;28;20186;-73
2023/05/17 14:22:01;;;;;;;4.77;2.60;;;;;;;;;;5028820;28;20184;-74
2023/05/17 14:24:27;;;;;;;4.60;2.90;;;;;;;;;;5028549;28;20186;-73
2023/05/17 14:26:53;;;;;;;5.73;3.00;;;;;;;;;;5030634;28;20225;-73
2023/05/17 14:29:19;;;;;;;3.90;2.70;;;;;;;;;;5044098;28;20189;-73
2023/05/17 14:31:46;;;;;;;5.53;3.17;;;;;;;;;;5014630;28;20212;-73
2023/05/17 14:34:12;;;;;;;5.20;2.67;;;;;;;;;;4998455;28;20202;-73
2023/05/17 14:36:38;;;;;;;5.40;2.60;;;;;;;;;;5031512;28;20228;-73
2023/05/17 14:39:04;;;;;;;5.50;2.80;;;;;;;;;;5019160;28;20211;-73
2023/05/17 14:41:31;;;;;;;4.40;2.70;;;;;;;;;;5023095;28;20241;-73
2023/05/17 14:43:57;;;;;;;4.53;2.83;;;;;;;;;;5025436;28;20738;-73